sensor_id;sensor_type;location;lat;lon;timestamp;pressure;altitude;pressure_sealevel;temperature;humidity
39891;BME280;25564;53.312;9.790;2023-07-20T00:00:01;100547.38;;;13.40;100.00
39891;BME280;25564;53.312;9.790;2023-07-20T00:02:33;100546.41;;;13.43;100.00
39891;BME280;25564;53.312;9.790;2023-07-20T00:05:04;100537.50;;;13.44;100.00
39891;BME280;25564;53.312;9.790;2023-07-20T00:07:36;100548.94;;;13.48;100.00
39891;BME280;25564;53.312;9.790;2023-07-20T00:10:08;100525.91;;;13.45;100.00
39891;BME280;25564;53.312;9.790;2023-07-20T00:12:39;100547.75;;;13.56;100.00
39891;BME280;25564;53.312;9.790;2023-07-20T00:15:10;100523.97;;;13.50;100.00
39891;BME280;25564;53.312;9.790;2023-07-20T00:17:42;100521.03;;;13.58;100.00
39891;BME280;25564;53.312;9.790;2023-07-20T00:20:13;100540.78;;;13.79;100.00
39891;BME280;25564;53.312;9.790;2023-07-20T00:22:45;100542.41;;;13.83;100.00
39891;BME280;25564;53.312;9.790;2023-07-20T00:25:16;100543.13;;;13.88;100.00
39891;BME280;25564;53.312;9.790;2023-07-20T00:27:48;100540.47;;;13.88;100.00
39891;BME280;25564;53.312;9.790;2023-07-20T00:30:19;100543.75;;;13.96;100.00
39891;BME280;25564;53.312;9.790;2023-07-20T00:32:50;100540.97;;;13.99;100.00
39891;BME280;25564;53.312;9.790;2023-07-20T00:35:22;100533.06;;;13.96;100.00
39891;BME280;25564;53.312;9.790;2023-07-20T00:37:53;100539.13;;;14.01;100.00
39891;BME280;25564;53.312;9.790;2023-07-20T00:40:24;100533.69;;;14.04;100.00
39891;BME280;25564;53.312;9.790;2023-07-20T00:42:56;100529.88;;;14.11;100.00
39891;BME280;25564;53.312;9.790;2023-07-20T00:45:27;100534.91;;;14.20;100.00
39891;BME280;25564;53.312;9.790;2023-07-20T00:48:01;100539.91;;;14.29;100.00
39891;BME280;25564;53.312;9.790;2023-07-20T00:50:33;100517.97;;;14.21;100.00
39891;BME280;25564;53.312;9.790;2023-07-20T00:53:05;100524.75;;;14.30;100.00
39891;BME280;25564;53.312;9.790;2023-07-20T00:55:37;100520.88;;;14.38;100.00
39891;BME280;25564;53.312;9.790;2023-07-20T00:58:09;100513.00;;;14.35;100.00
39891;BME280;25564;53.312;9.790;2023-07-20T01:00:40;100536.56;;;14.49;100.00
39891;BME280;25564;53.312;9.790;2023-07-20T01:03:12;100533.94;;;14.48;100.00
39891;BME280;25564;53.312;9.790;2023-07-20T01:11:36;100523.97;;;14.53;100.00
39891;BME280;25564;53.312;9.790;2023-07-20T01:14:09;100528.22;;;14.57;100.00
39891;BME280;25564;53.312;9.790;2023-07-20T01:16:41;100537.94;;;14.59;100.00
39891;BME280;25564;53.312;9.790;2023-07-20T01:19:13;100540.53;;;14.61;100.00
39891;BME280;25564;53.312;9.790;2023-07-20T01:21:53;100541.47;;;14.60;100.00
39891;BME280;25564;53.312;9.790;2023-07-20T01:33:15;100537.00;;;14.60;100.00
39891;BME280;25564;53.312;9.790;2023-07-20T01:35:53;100520.31;;;14.55;100.00
39891;BME280;25564;53.312;9.790;2023-07-20T01:38:25;100537.75;;;14.64;100.00
39891;BME280;25564;53.312;9.790;2023-07-20T01:40:57;100525.28;;;14.64;100.00
39891;BME280;25564;53.312;9.790;2023-07-20T01:43:29;100537.75;;;14.64;100.00
39891;BME280;25564;53.312;9.790;2023-07-20T01:46:00;100526.53;;;14.56;100.00
39891;BME280;25564;53.312;9.790;2023-07-20T01:48:32;100528.19;;;14.58;100.00
39891;BME280;25564;53.312;9.790;2023-07-20T01:51:03;100536.13;;;14.60;100.00
39891;BME280;25564;53.312;9.790;2023-07-20T01:53:34;100515.13;;;14.51;100.00
39891;BME280;25564;53.312;9.790;2023-07-20T01:56:06;100525.66;;;14.55;100.00
39891;BME280;25564;53.312;9.790;2023-07-20T01:58:38;100509.91;;;14.48;100.00
39891;BME280;25564;53.312;9.790;2023-07-20T02:01:09;100521.19;;;14.56;100.00
39891;BME280;25564;53.312;9.790;2023-07-20T02:03:41;100513.41;;;14.50;100.00
39891;BME280;25564;53.312;9.790;2023-07-20T02:06:12;100518.56;;;14.54;100.00
39891;BME280;25564;53.312;9.790;2023-07-20T02:08:43;100524.84;;;14.53;100.00
39891;BME280;25564;53.312;9.790;2023-07-20T02:11:15;100524.06;;;14.50;100.00
39891;BME280;25564;53.312;9.790;2023-07-20T02:13:46;100523.25;;;14.48;100.00
39891;BME280;25564;53.312;9.790;2023-07-20T02:16:17;100524.19;;;14.47;100.00
39891;BME280;25564;53.312;9.790;2023-07-20T02:18:49;100524.25;;;14.45;100.00
39891;BME280;25564;53.312;9.790;2023-07-20T02:21:20;100504.06;;;14.36;100.00
39891;BME280;25564;53.312;9.790;2023-07-20T02:23:51;100522.63;;;14.39;100.00
39891;BME280;25564;53.312;9.790;2023-07-20T02:26:23;100524.44;;;14.39;100.00
39891;BME280;25564;53.312;9.790;2023-07-20T02:28:55;100522.69;;;14.38;100.00
39891;BME280;25564;53.312;9.790;2023-07-20T02:31:26;100522.69;;;14.38;100.00
39891;BME280;25564;53.312;9.790;2023-07-20T02:33:57;100529.81;;;14.37;100.00
39891;BME280;25564;53.312;9.790;2023-07-20T02:36:29;100521.81;;;14.37;100.00
39891;BME280;25564;53.312;9.790;2023-07-20T02:39:00;100528.91;;;14.38;100.00
39891;BME280;25564;53.312;9.790;2023-07-20T02:41:34;100517.50;;;14.33;100.00
39891;BME280;25564;53.312;9.790;2023-07-20T02:44:05;100509.78;;;14.26;100.00
39891;BME280;25564;53.312;9.790;2023-07-20T02:46:36;100521.81;;;14.37;100.00
39891;BME280;25564;53.312;9.790;2023-07-20T02:49:08;100517.28;;;14.39;100.00
39891;BME280;25564;53.312;9.790;2023-07-20T02:51:40;100539.28;;;14.48;100.00
39891;BME280;25564;53.312;9.790;2023-07-20T02:54:11;100513.63;;;14.44;100.00
39891;BME280;25564;53.312;9.790;2023-07-20T02:56:43;100516.88;;;14.52;100.00
39891;BME280;25564;53.312;9.790;2023-07-20T02:59:15;100532.66;;;14.58;100.00
39891;BME280;25564;53.312;9.790;2023-07-20T03:01:46;100531.88;;;14.56;100.00
39891;BME280;25564;53.312;9.790;2023-07-20T03:04:17;100537.06;;;14.59;100.00
39891;BME280;25564;53.312;9.790;2023-07-20T03:06:49;100495.06;;;14.39;100.00
39891;BME280;25564;53.312;9.790;2023-07-20T03:09:20;100535.19;;;14.61;100.00
39891;BME280;25564;53.312;9.790;2023-07-20T03:11:51;100533.22;;;14.66;100.00
39891;BME280;25564;53.312;9.790;2023-07-20T03:14:23;100542.00;;;14.69;100.00
39891;BME280;25564;53.312;9.790;2023-07-20T03:16:55;100533.34;;;14.63;100.00
39891;BME280;25564;53.312;9.790;2023-07-20T03:19:26;100549.03;;;14.72;100.00
39891;BME280;25564;53.312;9.790;2023-07-20T03:21:59;100552.53;;;14.74;100.00
39891;BME280;25564;53.312;9.790;2023-07-20T03:24:30;100541.72;;;14.77;100.00
39891;BME280;25564;53.312;9.790;2023-07-20T03:27:02;100540.78;;;14.78;100.00
39891;BME280;25564;53.312;9.790;2023-07-20T03:29:33;100534.63;;;14.76;100.00
39891;BME280;25564;53.312;9.790;2023-07-20T03:32:05;100536.38;;;14.77;100.00
39891;BME280;25564;53.312;9.790;2023-07-20T03:34:36;100534.53;;;14.79;100.00
39891;BME280;25564;53.312;9.790;2023-07-20T03:37:08;100494.38;;;14.57;100.00
39891;BME280;25564;53.312;9.790;2023-07-20T03:39:39;100540.44;;;14.87;100.00
39891;BME280;25564;53.312;9.790;2023-07-20T03:42:10;100550.19;;;14.88;100.00
39891;BME280;25564;53.312;9.790;2023-07-20T03:44:42;100552.88;;;14.88;100.00
39891;BME280;25564;53.312;9.790;2023-07-20T03:47:13;100552.94;;;14.87;100.00
39891;BME280;25564;53.312;9.790;2023-07-20T03:49:45;100552.81;;;14.90;100.00
39891;BME280;25564;53.312;9.790;2023-07-20T03:52:16;100546.72;;;14.86;100.00
39891;BME280;25564;53.312;9.790;2023-07-20T03:54:47;100551.88;;;14.91;100.00
39891;BME280;25564;53.312;9.790;2023-07-20T03:57:19;100543.13;;;14.87;100.00
39891;BME280;25564;53.312;9.790;2023-07-20T03:59:50;100549.03;;;14.95;100.00
39891;BME280;25564;53.312;9.790;2023-07-20T04:02:21;100510.72;;;14.73;100.00
39891;BME280;25564;53.312;9.790;2023-07-20T04:04:53;100556.13;;;14.96;100.00
39891;BME280;25564;53.312;9.790;2023-07-20T04:07:24;100559.66;;;14.97;100.00
39891;BME280;25564;53.312;9.790;2023-07-20T04:09:55;100521.97;;;14.81;100.00
39891;BME280;25564;53.312;9.790;2023-07-20T04:12:27;100565.53;;;15.07;100.00
39891;BME280;25564;53.312;9.790;2023-07-20T04:14:59;100559.09;;;15.12;100.00
39891;BME280;25564;53.312;9.790;2023-07-20T04:17:30;100566.22;;;15.12;100.00
39891;BME280;25564;53.312;9.790;2023-07-20T04:20:01;100544.50;;;14.97;100.00
39891;BME280;25564;53.312;9.790;2023-07-20T04:22:34;100549.84;;;14.97;100.00
39891;BME280;25564;53.312;9.790;2023-07-20T04:25:05;100540.38;;;14.89;100.00
39891;BME280;25564;53.312;9.790;2023-07-20T04:27:37;100576.22;;;15.07;100.00
39891;BME280;25564;53.312;9.790;2023-07-20T04:30:08;100572.63;;;15.08;100.00
39891;BME280;25564;53.312;9.790;2023-07-20T04:32:40;100567.28;;;15.08;100.00
39891;BME280;25564;53.312;9.790;2023-07-20T04:35:51;100575.28;;;15.08;100.00
39891;BME280;25564;53.312;9.790;2023-07-20T04:38:23;100570.00;;;15.06;100.00
39891;BME280;25564;53.312;9.790;2023-07-20T04:40:55;100534.41;;;14.82;100.00
39891;BME280;25564;53.312;9.790;2023-07-20T04:43:26;100577.78;;;15.12;100.00
39891;BME280;25564;53.312;9.790;2023-07-20T04:45:58;100578.31;;;15.22;100.00
39891;BME280;25564;53.312;9.790;2023-07-20T04:48:29;100584.22;;;15.30;100.00
39891;BME280;25564;53.312;9.790;2023-07-20T04:51:01;100560.34;;;15.25;100.00
39891;BME280;25564;53.312;9.790;2023-07-20T04:53:32;100562.72;;;15.33;100.00
39891;BME280;25564;53.312;9.790;2023-07-20T04:56:04;100580.84;;;15.48;100.00
39891;BME280;25564;53.312;9.790;2023-07-20T04:58:35;100559.69;;;15.42;100.00
39891;BME280;25564;53.312;9.790;2023-07-20T05:01:08;100561.88;;;15.54;100.00
39891;BME280;25564;53.312;9.790;2023-07-20T05:03:39;100556.09;;;15.65;100.00
39891;BME280;25564;53.312;9.790;2023-07-20T05:06:11;100544.81;;;15.79;100.00
39891;BME280;25564;53.312;9.790;2023-07-20T05:08:46;100564.50;;;15.98;100.00
39891;BME280;25564;53.312;9.790;2023-07-20T05:11:17;100577.50;;;16.07;100.00
39891;BME280;25564;53.312;9.790;2023-07-20T05:13:49;100562.31;;;16.08;100.00
39891;BME280;25564;53.312;9.790;2023-07-20T05:16:20;100567.22;;;16.18;100.00
39891;BME280;25564;53.312;9.790;2023-07-20T05:18:52;100555.84;;;16.13;100.00
39891;BME280;25564;53.312;9.790;2023-07-20T05:21:23;100561.19;;;16.13;100.00
39891;BME280;25564;53.312;9.790;2023-07-20T05:23:55;100551.00;;;16.01;100.00
39891;BME280;25564;53.312;9.790;2023-07-20T05:26:26;100564.00;;;16.30;100.00
39891;BME280;25564;53.312;9.790;2023-07-20T05:28:57;100588.25;;;16.48;100.00
39891;BME280;25564;53.312;9.790;2023-07-20T05:31:29;100582.09;;;16.46;100.00
39891;BME280;25564;53.312;9.790;2023-07-20T05:34:01;100564.34;;;16.43;100.00
39891;BME280;25564;53.312;9.790;2023-07-20T05:36:33;100574.97;;;16.65;100.00
39891;BME280;25564;53.312;9.790;2023-07-20T05:39:04;100585.56;;;16.68;100.00
39891;BME280;25564;53.312;9.790;2023-07-20T05:41:35;100573.84;;;16.71;100.00
39891;BME280;25564;53.312;9.790;2023-07-20T05:44:07;100574.53;;;16.94;100.00
39891;BME280;25564;53.312;9.790;2023-07-20T05:46:38;100562.72;;;16.98;100.00
39891;BME280;25564;53.312;9.790;2023-07-20T05:49:27;100573.31;;;17.02;100.00
39891;BME280;25564;53.312;9.790;2023-07-20T05:51:58;100586.06;;;16.96;100.00
39891;BME280;25564;53.312;9.790;2023-07-20T05:54:30;100587.28;;;17.08;100.00
39891;BME280;25564;53.312;9.790;2023-07-20T05:57:01;100583.75;;;17.08;100.00
39891;BME280;25564;53.312;9.790;2023-07-20T05:59:32;100566.22;;;17.00;100.00
39891;BME280;25564;53.312;9.790;2023-07-20T06:02:04;100579.59;;;17.00;100.00
39891;BME280;25564;53.312;9.790;2023-07-20T06:04:35;100590.72;;;17.12;100.00
39891;BME280;25564;53.312;9.790;2023-07-20T06:07:07;100585.19;;;17.15;100.00
39891;BME280;25564;53.312;9.790;2023-07-20T06:09:41;100578.09;;;17.14;100.00
39891;BME280;25564;53.312;9.790;2023-07-20T06:12:12;100597.03;;;18.55;100.00
39891;BME280;25564;53.312;9.790;2023-07-20T06:14:43;100595.19;;;20.16;100.00
39891;BME280;25564;53.312;9.790;2023-07-20T06:17:15;100583.53;;;20.75;100.00
39891;BME280;25564;53.312;9.790;2023-07-20T06:19:46;100603.81;;;21.93;99.06
39891;BME280;25564;53.312;9.790;2023-07-20T06:22:18;100611.28;;;22.69;97.48
39891;BME280;25564;53.312;9.790;2023-07-20T06:24:49;100608.72;;;22.80;95.10
39891;BME280;25564;53.312;9.790;2023-07-20T06:27:21;100616.44;;;23.48;93.95
39891;BME280;25564;53.312;9.790;2023-07-20T06:29:52;100597.53;;;24.20;91.67
39891;BME280;25564;53.312;9.790;2023-07-20T06:32:23;100621.28;;;24.29;89.73
39891;BME280;25564;53.312;9.790;2023-07-20T06:34:55;100622.94;;;24.89;84.64
39891;BME280;25564;53.312;9.790;2023-07-20T06:37:26;100619.25;;;24.90;81.48
39891;BME280;25564;53.312;9.790;2023-07-20T06:39:57;100615.19;;;24.95;81.00
39891;BME280;25564;53.312;9.790;2023-07-20T06:42:31;100609.88;;;24.94;80.25
39891;BME280;25564;53.312;9.790;2023-07-20T06:45:06;100603.91;;;24.77;81.56
39891;BME280;25564;53.312;9.790;2023-07-20T06:47:41;100601.38;;;24.52;83.11
39891;BME280;25564;53.312;9.790;2023-07-20T06:50:12;100616.88;;;24.15;85.10
39891;BME280;25564;53.312;9.790;2023-07-20T06:52:48;100609.97;;;23.87;86.37
39891;BME280;25564;53.312;9.790;2023-07-20T06:55:20;100614.78;;;23.71;87.39
39891;BME280;25564;53.312;9.790;2023-07-20T06:57:54;100589.53;;;22.96;88.03
39891;BME280;25564;53.312;9.790;2023-07-20T07:00:30;100601.25;;;22.83;90.54
39891;BME280;25564;53.312;9.790;2023-07-20T07:03:01;100573.56;;;22.80;91.21
39891;BME280;25564;53.312;9.790;2023-07-20T07:05:37;100602.16;;;22.44;91.04
39891;BME280;25564;53.312;9.790;2023-07-20T07:08:09;100593.41;;;21.87;91.09
39891;BME280;25564;53.312;9.790;2023-07-20T07:10:40;100607.44;;;21.38;91.30
39891;BME280;25564;53.312;9.790;2023-07-20T07:13:11;100574.84;;;20.70;91.22
39891;BME280;25564;53.312;9.790;2023-07-20T07:15:43;100598.94;;;20.73;91.61
39891;BME280;25564;53.312;9.790;2023-07-20T07:18:15;100593.88;;;20.53;91.19
39891;BME280;25564;53.312;9.790;2023-07-20T07:20:53;100598.50;;;20.51;91.18
39891;BME280;25564;53.312;9.790;2023-07-20T07:23:24;100601.03;;;20.54;91.44
39891;BME280;25564;53.312;9.790;2023-07-20T07:25:56;100609.31;;;20.65;91.64
39891;BME280;25564;53.312;9.790;2023-07-20T07:28:28;100588.81;;;20.63;91.85
39891;BME280;25564;53.312;9.790;2023-07-20T07:30:59;100602.78;;;20.83;91.44
39891;BME280;25564;53.312;9.790;2023-07-20T07:33:32;100609.72;;;20.87;91.56
39891;BME280;25564;53.312;9.790;2023-07-20T07:36:04;100598.25;;;21.12;91.33
39891;BME280;25564;53.312;9.790;2023-07-20T07:38:35;100606.75;;;21.35;90.97
39891;BME280;25564;53.312;9.790;2023-07-20T07:41:26;100599.72;;;21.32;90.55
39891;BME280;25564;53.312;9.790;2023-07-20T07:43:58;100615.38;;;21.68;90.86
39891;BME280;25564;53.312;9.790;2023-07-20T07:46:29;100620.81;;;21.54;89.79
39891;BME280;25564;53.312;9.790;2023-07-20T07:49:00;100607.22;;;20.99;89.41
39891;BME280;25564;53.312;9.790;2023-07-20T07:51:32;100617.94;;;20.42;89.16
39891;BME280;25564;53.312;9.790;2023-07-20T07:54:04;100630.28;;;20.46;90.30
39891;BME280;25564;53.312;9.790;2023-07-20T07:56:35;100612.84;;;20.51;90.42
39891;BME280;25564;53.312;9.790;2023-07-20T07:59:07;100619.75;;;20.71;90.61
39891;BME280;25564;53.312;9.790;2023-07-20T08:01:38;100622.25;;;21.03;91.06
39891;BME280;25564;53.312;9.790;2023-07-20T08:04:10;100628.44;;;21.33;90.27
39891;BME280;25564;53.312;9.790;2023-07-20T08:06:41;100634.97;;;21.15;89.63
39891;BME280;25564;53.312;9.790;2023-07-20T08:09:12;100637.69;;;21.15;89.18
39891;BME280;25564;53.312;9.790;2023-07-20T08:11:44;100614.56;;;21.25;89.09
39891;BME280;25564;53.312;9.790;2023-07-20T08:14:15;100611.47;;;21.45;88.39
39891;BME280;25564;53.312;9.790;2023-07-20T08:16:47;100632.78;;;21.36;85.78
39891;BME280;25564;53.312;9.790;2023-07-20T08:19:19;100640.50;;;21.28;86.46
39891;BME280;25564;53.312;9.790;2023-07-20T08:21:51;100638.94;;;21.52;86.15
39891;BME280;25564;53.312;9.790;2023-07-20T08:24:22;100644.44;;;21.65;85.48
39891;BME280;25564;53.312;9.790;2023-07-20T08:26:54;100624.94;;;21.74;84.75
39891;BME280;25564;53.312;9.790;2023-07-20T08:29:25;100631.41;;;21.57;83.08
39891;BME280;25564;53.312;9.790;2023-07-20T08:31:56;100636.06;;;21.41;82.97
39891;BME280;25564;53.312;9.790;2023-07-20T08:34:28;100630.63;;;21.12;82.86
39891;BME280;25564;53.312;9.790;2023-07-20T08:37:02;100636.34;;;21.36;82.67
39891;BME280;25564;53.312;9.790;2023-07-20T08:39:34;100628.06;;;21.53;82.52
39891;BME280;25564;53.312;9.790;2023-07-20T08:42:06;100618.94;;;21.69;82.29
39891;BME280;25564;53.312;9.790;2023-07-20T08:44:39;100628.31;;;21.90;81.49
39891;BME280;25564;53.312;9.790;2023-07-20T08:47:13;100615.78;;;21.89;81.05
39891;BME280;25564;53.312;9.790;2023-07-20T08:49:50;100629.41;;;22.41;81.03
39891;BME280;25564;53.312;9.790;2023-07-20T08:52:21;100638.25;;;22.96;80.81
39891;BME280;25564;53.312;9.790;2023-07-20T08:54:53;100629.03;;;22.73;80.02
39891;BME280;25564;53.312;9.790;2023-07-20T08:57:25;100652.28;;;22.23;79.69
39891;BME280;25564;53.312;9.790;2023-07-20T08:59:57;100652.56;;;21.50;78.97
39891;BME280;25564;53.312;9.790;2023-07-20T09:02:29;100643.22;;;20.69;79.81
39891;BME280;25564;53.312;9.790;2023-07-20T09:05:04;100675.25;;;19.98;80.50
39891;BME280;25564;53.312;9.790;2023-07-20T09:07:36;100634.38;;;18.61;82.48
39891;BME280;25564;53.312;9.790;2023-07-20T09:10:08;100628.09;;;17.90;84.80
39891;BME280;25564;53.312;9.790;2023-07-20T09:12:41;100653.94;;;17.55;86.85
39891;BME280;25564;53.312;9.790;2023-07-20T09:15:14;100652.34;;;17.32;87.93
39891;BME280;25564;53.312;9.790;2023-07-20T09:17:49;100607.50;;;16.96;89.48
39891;BME280;25564;53.312;9.790;2023-07-20T09:20:21;100621.69;;;16.98;90.41
39891;BME280;25564;53.312;9.790;2023-07-20T09:22:54;100646.75;;;17.37;91.50
39891;BME280;25564;53.312;9.790;2023-07-20T09:25:26;100669.03;;;17.76;92.68
39891;BME280;25564;53.312;9.790;2023-07-20T09:28:02;100665.59;;;17.91;92.84
39891;BME280;25564;53.312;9.790;2023-07-20T09:30:36;100607.44;;;17.73;94.02
39891;BME280;25564;53.312;9.790;2023-07-20T09:33:18;100649.00;;;18.19;93.50
39891;BME280;25564;53.312;9.790;2023-07-20T09:35:53;100655.38;;;18.53;93.91
39891;BME280;25564;53.312;9.790;2023-07-20T09:38:28;100650.78;;;18.72;94.17
39891;BME280;25564;53.312;9.790;2023-07-20T09:41:20;100652.44;;;18.75;93.90
39891;BME280;25564;53.312;9.790;2023-07-20T09:43:55;100664.38;;;18.86;94.33
39891;BME280;25564;53.312;9.790;2023-07-20T09:46:41;100659.28;;;18.65;92.71
39891;BME280;25564;53.312;9.790;2023-07-20T09:49:17;100622.94;;;18.56;94.26
39891;BME280;25564;53.312;9.790;2023-07-20T09:51:51;100648.56;;;18.80;93.65
39891;BME280;25564;53.312;9.790;2023-07-20T09:54:26;100618.75;;;18.85;95.15
39891;BME280;25564;53.312;9.790;2023-07-20T09:56:58;100622.09;;;19.06;94.83
39891;BME280;25564;53.312;9.790;2023-07-20T09:59:31;100639.34;;;19.35;93.89
39891;BME280;25564;53.312;9.790;2023-07-20T10:02:07;100664.53;;;19.49;93.24
39891;BME280;25564;53.312;9.790;2023-07-20T10:04:43;100641.53;;;19.11;92.16
39891;BME280;25564;53.312;9.790;2023-07-20T10:07:14;100655.25;;;19.06;92.31
39891;BME280;25564;53.312;9.790;2023-07-20T10:09:48;100656.28;;;19.04;91.73
39891;BME280;25564;53.312;9.790;2023-07-20T10:12:22;100648.09;;;19.22;92.33
39891;BME280;25564;53.312;9.790;2023-07-20T10:18:09;100651.78;;;20.16;91.78
39891;BME280;25564;53.312;9.790;2023-07-20T10:20:44;100641.06;;;20.46;92.06
39891;BME280;25564;53.312;9.790;2023-07-20T10:23:18;100656.34;;;20.89;91.31
39891;BME280;25564;53.312;9.790;2023-07-20T10:25:50;100624.75;;;21.06;89.87
39891;BME280;25564;53.312;9.790;2023-07-20T10:28:22;100651.94;;;21.74;89.42
39891;BME280;25564;53.312;9.790;2023-07-20T10:30:54;100648.09;;;22.32;88.32
39891;BME280;25564;53.312;9.790;2023-07-20T10:33:25;100651.28;;;22.51;86.87
39891;BME280;25564;53.312;9.790;2023-07-20T10:36:02;100646.91;;;22.75;86.23
39891;BME280;25564;53.312;9.790;2023-07-20T10:38:52;100646.94;;;22.48;83.77
39891;BME280;25564;53.312;9.790;2023-07-20T10:41:34;100668.72;;;21.79;84.23
39891;BME280;25564;53.312;9.790;2023-07-20T10:44:07;100643.25;;;20.23;84.79
39891;BME280;25564;53.312;9.790;2023-07-20T10:49:11;100652.34;;;18.76;88.17
39891;BME280;25564;53.312;9.790;2023-07-20T10:51:48;100655.38;;;18.53;89.42
39891;BME280;25564;53.312;9.790;2023-07-20T10:56:51;100622.78;;;18.24;89.68
39891;BME280;25564;53.312;9.790;2023-07-20T11:01:55;100663.09;;;18.76;89.25
39891;BME280;25564;53.312;9.790;2023-07-20T11:04:40;100653.19;;;19.11;88.58
39891;BME280;25564;53.312;9.790;2023-07-20T11:07:16;100640.75;;;19.42;88.75
39891;BME280;25564;53.312;9.790;2023-07-20T11:09:48;100656.31;;;19.84;87.81
39891;BME280;25564;53.312;9.790;2023-07-20T11:12:21;100627.38;;;20.03;87.18
39891;BME280;25564;53.312;9.790;2023-07-20T11:14:54;100638.28;;;20.32;86.26
39891;BME280;25564;53.312;9.790;2023-07-20T11:17:33;100630.09;;;20.49;85.36
39891;BME280;25564;53.312;9.790;2023-07-20T11:20:11;100662.41;;;20.93;85.28
39891;BME280;25564;53.312;9.790;2023-07-20T11:22:47;100661.38;;;21.10;85.20
39891;BME280;25564;53.312;9.790;2023-07-20T11:25:19;100675.31;;;21.32;84.92
39891;BME280;25564;53.312;9.790;2023-07-20T11:27:51;100680.66;;;21.18;83.78
39891;BME280;25564;53.312;9.790;2023-07-20T11:30:23;100692.66;;;20.84;81.39
39891;BME280;25564;53.312;9.790;2023-07-20T11:32:55;100678.06;;;20.58;83.30
39891;BME280;25564;53.312;9.790;2023-07-20T11:35:26;100668.19;;;20.43;83.97
39891;BME280;25564;53.312;9.790;2023-07-20T11:37:58;100659.00;;;20.15;84.05
39891;BME280;25564;53.312;9.790;2023-07-20T11:40:29;100668.31;;;20.10;84.03
39891;BME280;25564;53.312;9.790;2023-07-20T11:43:00;100647.19;;;19.86;84.07
39891;BME280;25564;53.312;9.790;2023-07-20T11:45:35;100656.72;;;20.23;83.94
39891;BME280;25564;53.312;9.790;2023-07-20T11:48:06;100656.19;;;20.48;83.49
39891;BME280;25564;53.312;9.790;2023-07-20T11:50:39;100685.63;;;20.81;81.84
39891;BME280;25564;53.312;9.790;2023-07-20T11:53:11;100699.50;;;20.45;79.19
39891;BME280;25564;53.312;9.790;2023-07-20T11:55:45;100656.66;;;19.13;82.84
39891;BME280;25564;53.312;9.790;2023-07-20T11:58:16;100689.34;;;18.54;85.02
39891;BME280;25564;53.312;9.790;2023-07-20T12:00:48;100671.19;;;17.87;86.63
39891;BME280;25564;53.312;9.790;2023-07-20T12:03:20;100632.91;;;17.46;88.27
39891;BME280;25564;53.312;9.790;2023-07-20T12:05:51;100660.16;;;17.93;89.60
39891;BME280;25564;53.312;9.790;2023-07-20T12:08:32;100668.31;;;18.79;89.98
39891;BME280;25564;53.312;9.790;2023-07-20T12:11:04;100640.19;;;19.19;89.31
39891;BME280;25564;53.312;9.790;2023-07-20T12:13:42;100658.34;;;19.65;88.08
39891;BME280;25564;53.312;9.790;2023-07-20T12:16:15;100663.91;;;19.62;87.44
39891;BME280;25564;53.312;9.790;2023-07-20T12:18:47;100655.03;;;19.75;87.16
39891;BME280;25564;53.312;9.790;2023-07-20T12:21:19;100644.38;;;20.19;87.49
39891;BME280;25564;53.312;9.790;2023-07-20T12:23:50;100644.97;;;20.70;86.10
39891;BME280;25564;53.312;9.790;2023-07-20T12:26:21;100652.16;;;21.28;85.94
39891;BME280;25564;53.312;9.790;2023-07-20T12:28:55;100632.28;;;21.58;83.92
39891;BME280;25564;53.312;9.790;2023-07-20T12:31:27;100650.47;;;21.82;84.49
39891;BME280;25564;53.312;9.790;2023-07-20T12:34:01;100654.97;;;22.23;83.64
39891;BME280;25564;53.312;9.790;2023-07-20T12:36:32;100652.59;;;22.18;81.50
39891;BME280;25564;53.312;9.790;2023-07-20T12:39:03;100662.09;;;22.51;82.74
39891;BME280;25564;53.312;9.790;2023-07-20T12:41:35;100660.03;;;23.32;82.30
39891;BME280;25564;53.312;9.790;2023-07-20T12:44:07;100647.19;;;23.72;80.98
39891;BME280;25564;53.312;9.790;2023-07-20T12:46:38;100632.38;;;23.53;79.88
39891;BME280;25564;53.312;9.790;2023-07-20T12:49:10;100624.50;;;23.24;76.24
39891;BME280;25564;53.312;9.790;2023-07-20T12:51:41;100651.34;;;23.02;77.10
39891;BME280;25564;53.312;9.790;2023-07-20T12:54:13;100633.16;;;22.78;76.49
39891;BME280;25564;53.312;9.790;2023-07-20T12:56:44;100620.25;;;22.69;76.54
39891;BME280;25564;53.312;9.790;2023-07-20T12:59:19;100658.84;;;22.46;75.59
39891;BME280;25564;53.312;9.790;2023-07-20T13:01:50;100638.72;;;21.96;77.35
39891;BME280;25564;53.312;9.790;2023-07-20T13:04:21;100625.06;;;21.85;77.42
39891;BME280;25564;53.312;9.790;2023-07-20T13:06:53;100631.25;;;22.14;77.20
39891;BME280;25564;53.312;9.790;2023-07-20T13:09:26;100648.03;;;22.46;76.62
39891;BME280;25564;53.312;9.790;2023-07-20T13:11:57;100628.09;;;22.07;76.18
39891;BME280;25564;53.312;9.790;2023-07-20T13:14:28;100629.72;;;21.83;75.66
39891;BME280;25564;53.312;9.790;2023-07-20T13:17:00;100666.44;;;21.85;75.95
39891;BME280;25564;53.312;9.790;2023-07-20T13:19:32;100637.81;;;21.83;75.36
39891;BME280;25564;53.312;9.790;2023-07-20T13:22:03;100634.06;;;22.12;74.52
39891;BME280;25564;53.312;9.790;2023-07-20T13:24:35;100634.19;;;21.97;73.55
39891;BME280;25564;53.312;9.790;2023-07-20T13:27:06;100620.25;;;21.49;73.80
39891;BME280;25564;53.312;9.790;2023-07-20T13:29:38;100634.59;;;21.21;74.21
39891;BME280;25564;53.312;9.790;2023-07-20T13:32:09;100634.75;;;20.89;73.72
39891;BME280;25564;53.312;9.790;2023-07-20T13:34:41;100661.38;;;20.96;74.42
39891;BME280;25564;53.312;9.790;2023-07-20T13:37:13;100654.81;;;21.00;74.46